Terminal Aerodrome Forecast
Issued by NWS

Home | Current Version | Previous Version | Text Only | Print | Product List | Glossary On
Versions: 1 2 3 4 5 6 7 8 9 10 11 12 13 14 15 16 17 18
000
FTUS44 KJAN 230400 AAA
TAFHKS
TAF AMD
KHKS 230417Z 2304/2324 17006KT 6SM BR SCT012
     FM230600 17007KT 4SM BR SCT003 BKN012
     FM230700 17009KT 1/2SM FG OVC003
     FM230900 17005KT 1/4SM FG OVC001
     FM231500 14005KT 1/2SM FG OVC003
     FM231600 14005KT 1 1/2SM BR VCSH OVC004
     FM231700 14007KT 3SM BR VCSH OVC005
     FM231800 14007KT 5SM -SHRA BR VCTS OVC005CB=

USA.gov is the U.S. government's official web portal to all federal, state and local government web resources and services.